sensor_id;sensor_type;location;lat;lon;timestamp;P1;durP1;ratioP1;P2;durP2;ratioP2
40849;SDS011;26571;41.610;25.380;2023-07-22T00:00:19;5.07;;;4.40;;
40849;SDS011;26571;41.610;25.380;2023-07-22T00:02:47;4.25;;;3.65;;
40849;SDS011;26571;41.610;25.380;2023-07-22T00:05:13;5.03;;;3.90;;
40849;SDS011;26571;41.610;25.380;2023-07-22T00:07:38;7.30;;;6.60;;
40849;SDS011;26571;41.610;25.380;2023-07-22T00:12:31;5.03;;;4.28;;
40849;SDS011;26571;41.610;25.380;2023-07-22T00:14:57;5.07;;;4.77;;
40849;SDS011;26571;41.610;25.380;2023-07-22T00:17:22;4.43;;;4.03;;
40849;SDS011;26571;41.610;25.380;2023-07-22T00:19:49;5.13;;;4.70;;
40849;SDS011;26571;41.610;25.380;2023-07-22T00:22:15;5.63;;;4.47;;
40849;SDS011;26571;41.610;25.380;2023-07-22T00:24:40;7.77;;;4.50;;
40849;SDS011;26571;41.610;25.380;2023-07-22T00:27:06;6.03;;;4.43;;
40849;SDS011;26571;41.610;25.380;2023-07-22T00:29:33;7.28;;;4.25;;
40849;SDS011;26571;41.610;25.380;2023-07-22T00:31:59;5.33;;;4.83;;
40849;SDS011;26571;41.610;25.380;2023-07-22T00:34:25;5.80;;;5.00;;
40849;SDS011;26571;41.610;25.380;2023-07-22T00:36:51;6.53;;;3.88;;
40849;SDS011;26571;41.610;25.380;2023-07-22T00:39:17;6.00;;;5.23;;
40849;SDS011;26571;41.610;25.380;2023-07-22T00:41:43;5.03;;;4.20;;
40849;SDS011;26571;41.610;25.380;2023-07-22T00:44:10;7.18;;;4.65;;
40849;SDS011;26571;41.610;25.380;2023-07-22T00:46:36;12.63;;;4.57;;
40849;SDS011;26571;41.610;25.380;2023-07-22T00:49:02;6.67;;;5.37;;
40849;SDS011;26571;41.610;25.380;2023-07-22T00:51:27;5.07;;;4.57;;
40849;SDS011;26571;41.610;25.380;2023-07-22T00:53:53;8.30;;;5.77;;
40849;SDS011;26571;41.610;25.380;2023-07-22T00:56:18;6.40;;;5.07;;
40849;SDS011;26571;41.610;25.380;2023-07-22T00:58:44;6.05;;;5.03;;
40849;SDS011;26571;41.610;25.380;2023-07-22T01:01:10;6.17;;;4.40;;
40849;SDS011;26571;41.610;25.380;2023-07-22T01:03:36;12.07;;;6.17;;
40849;SDS011;26571;41.610;25.380;2023-07-22T01:06:01;5.87;;;4.87;;
40849;SDS011;26571;41.610;25.380;2023-07-22T01:08:27;5.00;;;3.97;;
40849;SDS011;26571;41.610;25.380;2023-07-22T01:10:53;5.43;;;4.20;;
40849;SDS011;26571;41.610;25.380;2023-07-22T01:13:19;4.25;;;3.63;;
40849;SDS011;26571;41.610;25.380;2023-07-22T01:15:45;4.27;;;3.87;;
40849;SDS011;26571;41.610;25.380;2023-07-22T01:18:10;4.83;;;3.53;;
40849;SDS011;26571;41.610;25.380;2023-07-22T01:20:36;5.10;;;3.87;;
40849;SDS011;26571;41.610;25.380;2023-07-22T01:23:01;7.50;;;4.30;;
40849;SDS011;26571;41.610;25.380;2023-07-22T01:25:27;5.27;;;4.73;;
40849;SDS011;26571;41.610;25.380;2023-07-22T01:27:53;4.67;;;4.30;;
40849;SDS011;26571;41.610;25.380;2023-07-22T01:30:18;11.37;;;6.33;;
40849;SDS011;26571;41.610;25.380;2023-07-22T01:32:44;4.67;;;3.37;;
40849;SDS011;26571;41.610;25.380;2023-07-22T01:37:36;3.60;;;3.33;;
40849;SDS011;26571;41.610;25.380;2023-07-22T01:40:02;7.37;;;3.93;;
40849;SDS011;26571;41.610;25.380;2023-07-22T01:42:37;5.80;;;4.35;;
40849;SDS011;26571;41.610;25.380;2023-07-22T01:45:03;6.00;;;4.88;;
40849;SDS011;26571;41.610;25.380;2023-07-22T01:47:32;4.85;;;3.78;;
40849;SDS011;26571;41.610;25.380;2023-07-22T01:50:01;6.28;;;4.90;;
40849;SDS011;26571;41.610;25.380;2023-07-22T01:54:53;4.05;;;3.75;;
40849;SDS011;26571;41.610;25.380;2023-07-22T01:57:18;4.20;;;3.43;;
40849;SDS011;26571;41.610;25.380;2023-07-22T01:59:44;4.30;;;3.50;;
40849;SDS011;26571;41.610;25.380;2023-07-22T02:02:09;4.73;;;3.50;;
40849;SDS011;26571;41.610;25.380;2023-07-22T02:04:34;4.77;;;4.20;;
40849;SDS011;26571;41.610;25.380;2023-07-22T02:07:00;5.53;;;4.33;;
40849;SDS011;26571;41.610;25.380;2023-07-22T02:09:25;5.83;;;4.40;;
40849;SDS011;26571;41.610;25.380;2023-07-22T02:11:52;5.55;;;4.80;;
40849;SDS011;26571;41.610;25.380;2023-07-22T02:14:18;3.65;;;3.22;;
40849;SDS011;26571;41.610;25.380;2023-07-22T02:16:43;6.27;;;3.87;;
40849;SDS011;26571;41.610;25.380;2023-07-22T02:19:09;8.30;;;3.37;;
40849;SDS011;26571;41.610;25.380;2023-07-22T02:21:34;7.43;;;3.67;;
40849;SDS011;26571;41.610;25.380;2023-07-22T02:26:26;3.58;;;3.30;;
40849;SDS011;26571;41.610;25.380;2023-07-22T02:28:52;5.20;;;4.50;;
40849;SDS011;26571;41.610;25.380;2023-07-22T02:31:17;6.07;;;5.23;;
40849;SDS011;26571;41.610;25.380;2023-07-22T02:33:42;5.23;;;3.97;;
40849;SDS011;26571;41.610;25.380;2023-07-22T02:36:08;7.73;;;4.70;;
40849;SDS011;26571;41.610;25.380;2023-07-22T02:38:33;5.83;;;3.67;;
40849;SDS011;26571;41.610;25.380;2023-07-22T02:41:02;5.80;;;5.10;;
40849;SDS011;26571;41.610;25.380;2023-07-22T02:43:30;6.70;;;4.30;;
40849;SDS011;26571;41.610;25.380;2023-07-22T02:45:56;5.63;;;4.90;;
40849;SDS011;26571;41.610;25.380;2023-07-22T02:48:22;4.82;;;4.38;;
40849;SDS011;26571;41.610;25.380;2023-07-22T02:50:48;5.03;;;4.63;;
40849;SDS011;26571;41.610;25.380;2023-07-22T02:53:13;7.67;;;4.80;;
40849;SDS011;26571;41.610;25.380;2023-07-22T02:55:38;5.13;;;4.23;;
40849;SDS011;26571;41.610;25.380;2023-07-22T02:58:04;5.63;;;5.13;;
40849;SDS011;26571;41.610;25.380;2023-07-22T03:00:30;8.93;;;5.80;;
40849;SDS011;26571;41.610;25.380;2023-07-22T03:02:56;5.37;;;4.87;;
40849;SDS011;26571;41.610;25.380;2023-07-22T03:05:26;5.93;;;4.18;;
40849;SDS011;26571;41.610;25.380;2023-07-22T03:07:55;6.10;;;5.63;;
40849;SDS011;26571;41.610;25.380;2023-07-22T03:10:21;6.05;;;5.55;;
40849;SDS011;26571;41.610;25.380;2023-07-22T03:12:46;5.73;;;4.87;;
40849;SDS011;26571;41.610;25.380;2023-07-22T03:15:12;5.73;;;5.33;;
40849;SDS011;26571;41.610;25.380;2023-07-22T03:17:38;6.20;;;5.50;;
40849;SDS011;26571;41.610;25.380;2023-07-22T03:20:04;6.95;;;5.60;;
40849;SDS011;26571;41.610;25.380;2023-07-22T03:22:43;6.45;;;5.80;;
40849;SDS011;26571;41.610;25.380;2023-07-22T03:25:09;7.32;;;5.38;;
40849;SDS011;26571;41.610;25.380;2023-07-22T03:27:36;7.57;;;5.60;;
40849;SDS011;26571;41.610;25.380;2023-07-22T03:30:03;10.85;;;5.63;;
40849;SDS011;26571;41.610;25.380;2023-07-22T03:32:31;6.47;;;5.00;;
40849;SDS011;26571;41.610;25.380;2023-07-22T03:34:57;10.63;;;6.27;;
40849;SDS011;26571;41.610;25.380;2023-07-22T03:37:22;9.97;;;4.80;;
40849;SDS011;26571;41.610;25.380;2023-07-22T03:39:48;10.07;;;5.23;;
40849;SDS011;26571;41.610;25.380;2023-07-22T03:42:13;6.43;;;4.73;;
40849;SDS011;26571;41.610;25.380;2023-07-22T03:44:39;6.27;;;5.70;;
40849;SDS011;26571;41.610;25.380;2023-07-22T03:49:31;6.68;;;4.55;;
40849;SDS011;26571;41.610;25.380;2023-07-22T03:51:56;5.63;;;4.00;;
40849;SDS011;26571;41.610;25.380;2023-07-22T03:54:21;7.23;;;4.07;;
40849;SDS011;26571;41.610;25.380;2023-07-22T03:56:47;5.77;;;4.30;;
40849;SDS011;26571;41.610;25.380;2023-07-22T03:59:12;4.67;;;4.30;;
40849;SDS011;26571;41.610;25.380;2023-07-22T04:01:38;6.10;;;4.07;;
40849;SDS011;26571;41.610;25.380;2023-07-22T04:04:03;8.17;;;3.67;;
40849;SDS011;26571;41.610;25.380;2023-07-22T04:06:29;11.90;;;4.63;;
40849;SDS011;26571;41.610;25.380;2023-07-22T04:08:54;3.57;;;3.37;;
40849;SDS011;26571;41.610;25.380;2023-07-22T04:11:20;4.13;;;3.83;;
40849;SDS011;26571;41.610;25.380;2023-07-22T04:13:45;6.97;;;4.00;;
40849;SDS011;26571;41.610;25.380;2023-07-22T04:16:11;9.03;;;4.33;;
40849;SDS011;26571;41.610;25.380;2023-07-22T04:18:36;5.07;;;3.47;;
40849;SDS011;26571;41.610;25.380;2023-07-22T04:21:01;5.07;;;3.53;;
40849;SDS011;26571;41.610;25.380;2023-07-22T04:23:27;3.63;;;3.37;;
40849;SDS011;26571;41.610;25.380;2023-07-22T04:25:52;4.23;;;3.90;;
40849;SDS011;26571;41.610;25.380;2023-07-22T04:28:18;13.65;;;4.95;;
40849;SDS011;26571;41.610;25.380;2023-07-22T04:30:53;7.37;;;3.57;;
40849;SDS011;26571;41.610;25.380;2023-07-22T04:33:24;8.77;;;3.97;;
40849;SDS011;26571;41.610;25.380;2023-07-22T04:35:50;4.45;;;4.13;;
40849;SDS011;26571;41.610;25.380;2023-07-22T04:38:18;4.22;;;3.85;;
40849;SDS011;26571;41.610;25.380;2023-07-22T04:40:43;4.90;;;4.20;;
40849;SDS011;26571;41.610;25.380;2023-07-22T04:43:09;6.78;;;4.30;;
40849;SDS011;26571;41.610;25.380;2023-07-22T04:45:35;4.63;;;3.70;;
40849;SDS011;26571;41.610;25.380;2023-07-22T04:48:01;7.70;;;6.30;;
40849;SDS011;26571;41.610;25.380;2023-07-22T04:52:52;4.97;;;3.50;;
40849;SDS011;26571;41.610;25.380;2023-07-22T04:55:18;8.38;;;3.28;;
40849;SDS011;26571;41.610;25.380;2023-07-22T04:57:44;11.60;;;3.93;;
40849;SDS011;26571;41.610;25.380;2023-07-22T05:00:12;3.72;;;3.50;;
40849;SDS011;26571;41.610;25.380;2023-07-22T05:02:39;4.35;;;2.63;;
40849;SDS011;26571;41.610;25.380;2023-07-22T05:05:06;6.70;;;3.00;;
40849;SDS011;26571;41.610;25.380;2023-07-22T05:07:32;6.95;;;3.63;;
40849;SDS011;26571;41.610;25.380;2023-07-22T05:09:57;3.42;;;2.85;;
40849;SDS011;26571;41.610;25.380;2023-07-22T05:12:23;3.63;;;3.17;;
40849;SDS011;26571;41.610;25.380;2023-07-22T05:14:48;11.50;;;5.20;;
40849;SDS011;26571;41.610;25.380;2023-07-22T05:17:14;4.47;;;3.80;;
40849;SDS011;26571;41.610;25.380;2023-07-22T05:19:40;5.25;;;3.60;;
40849;SDS011;26571;41.610;25.380;2023-07-22T05:22:06;4.93;;;3.70;;
40849;SDS011;26571;41.610;25.380;2023-07-22T05:24:32;7.30;;;3.50;;
40849;SDS011;26571;41.610;25.380;2023-07-22T05:26:57;8.13;;;4.37;;
40849;SDS011;26571;41.610;25.380;2023-07-22T05:29:23;5.60;;;3.90;;
40849;SDS011;26571;41.610;25.380;2023-07-22T05:31:48;4.30;;;3.17;;
40849;SDS011;26571;41.610;25.380;2023-07-22T05:34:17;5.10;;;3.63;;
40849;SDS011;26571;41.610;25.380;2023-07-22T05:36:42;7.03;;;3.65;;
40849;SDS011;26571;41.610;25.380;2023-07-22T05:39:08;3.63;;;3.43;;
40849;SDS011;26571;41.610;25.380;2023-07-22T05:41:33;4.30;;;3.87;;
40849;SDS011;26571;41.610;25.380;2023-07-22T05:43:59;5.17;;;3.47;;
40849;SDS011;26571;41.610;25.380;2023-07-22T05:46:24;7.23;;;4.60;;
40849;SDS011;26571;41.610;25.380;2023-07-22T05:48:50;3.93;;;3.53;;
40849;SDS011;26571;41.610;25.380;2023-07-22T05:51:15;3.67;;;3.40;;
40849;SDS011;26571;41.610;25.380;2023-07-22T05:53:42;6.28;;;3.55;;
40849;SDS011;26571;41.610;25.380;2023-07-22T05:56:08;3.90;;;3.60;;
40849;SDS011;26571;41.610;25.380;2023-07-22T05:58:34;4.10;;;3.73;;
40849;SDS011;26571;41.610;25.380;2023-07-22T06:00:59;4.97;;;3.65;;
40849;SDS011;26571;41.610;25.380;2023-07-22T06:03:25;4.10;;;3.77;;
40849;SDS011;26571;41.610;25.380;2023-07-22T06:05:50;6.17;;;4.50;;
40849;SDS011;26571;41.610;25.380;2023-07-22T06:08:15;5.33;;;3.63;;
40849;SDS011;26571;41.610;25.380;2023-07-22T06:10:41;4.70;;;4.23;;
40849;SDS011;26571;41.610;25.380;2023-07-22T06:13:07;5.30;;;4.00;;
40849;SDS011;26571;41.610;25.380;2023-07-22T06:15:33;4.70;;;4.27;;
40849;SDS011;26571;41.610;25.380;2023-07-22T06:17:59;5.10;;;4.60;;
40849;SDS011;26571;41.610;25.380;2023-07-22T06:20:25;6.18;;;4.70;;
40849;SDS011;26571;41.610;25.380;2023-07-22T06:22:50;8.02;;;4.45;;
40849;SDS011;26571;41.610;25.380;2023-07-22T06:25:16;4.67;;;4.37;;
40849;SDS011;26571;41.610;25.380;2023-07-22T06:27:41;4.37;;;4.03;;
40849;SDS011;26571;41.610;25.380;2023-07-22T06:30:07;5.03;;;4.53;;
40849;SDS011;26571;41.610;25.380;2023-07-22T06:32:33;9.13;;;4.28;;
40849;SDS011;26571;41.610;25.380;2023-07-22T06:35:00;4.93;;;3.78;;
40849;SDS011;26571;41.610;25.380;2023-07-22T06:37:26;6.00;;;4.37;;
40849;SDS011;26571;41.610;25.380;2023-07-22T06:39:51;5.17;;;4.67;;
40849;SDS011;26571;41.610;25.380;2023-07-22T06:42:17;4.67;;;4.27;;
40849;SDS011;26571;41.610;25.380;2023-07-22T06:44:42;5.40;;;4.50;;
40849;SDS011;26571;41.610;25.380;2023-07-22T06:47:08;4.40;;;3.95;;
40849;SDS011;26571;41.610;25.380;2023-07-22T06:49:33;4.47;;;3.87;;
40849;SDS011;26571;41.610;25.380;2023-07-22T06:51:59;6.87;;;4.40;;
40849;SDS011;26571;41.610;25.380;2023-07-22T06:54:24;7.43;;;3.27;;
40849;SDS011;26571;41.610;25.380;2023-07-22T06:56:50;3.97;;;3.60;;
40849;SDS011;26571;41.610;25.380;2023-07-22T06:59:15;5.33;;;3.57;;
40849;SDS011;26571;41.610;25.380;2023-07-22T07:01:40;4.40;;;2.67;;
40849;SDS011;26571;41.610;25.380;2023-07-22T07:04:06;4.87;;;3.23;;
40849;SDS011;26571;41.610;25.380;2023-07-22T07:06:31;5.85;;;3.53;;
40849;SDS011;26571;41.610;25.380;2023-07-22T07:09:00;5.22;;;3.63;;
40849;SDS011;26571;41.610;25.380;2023-07-22T07:11:26;2.75;;;2.65;;
40849;SDS011;26571;41.610;25.380;2023-07-22T07:13:54;5.18;;;2.85;;
40849;SDS011;26571;41.610;25.380;2023-07-22T07:16:23;3.37;;;3.00;;
40849;SDS011;26571;41.610;25.380;2023-07-22T07:18:50;6.68;;;3.30;;
40849;SDS011;26571;41.610;25.380;2023-07-22T07:21:17;9.30;;;4.43;;
40849;SDS011;26571;41.610;25.380;2023-07-22T07:23:43;4.72;;;4.45;;
40849;SDS011;26571;41.610;25.380;2023-07-22T07:26:08;4.30;;;3.78;;
40849;SDS011;26571;41.610;25.380;2023-07-22T07:28:34;5.63;;;3.83;;
40849;SDS011;26571;41.610;25.380;2023-07-22T07:30:59;3.17;;;2.87;;
40849;SDS011;26571;41.610;25.380;2023-07-22T07:33:25;4.47;;;3.57;;
40849;SDS011;26571;41.610;25.380;2023-07-22T07:35:50;6.95;;;3.88;;
40849;SDS011;26571;41.610;25.380;2023-07-22T07:38:16;4.47;;;3.63;;
40849;SDS011;26571;41.610;25.380;2023-07-22T07:40:41;4.73;;;3.93;;
40849;SDS011;26571;41.610;25.380;2023-07-22T07:43:07;3.15;;;2.80;;
40849;SDS011;26571;41.610;25.380;2023-07-22T07:45:32;3.47;;;3.10;;
40849;SDS011;26571;41.610;25.380;2023-07-22T07:47:57;3.20;;;2.90;;
40849;SDS011;26571;41.610;25.380;2023-07-22T07:50:23;3.97;;;3.47;;
40849;SDS011;26571;41.610;25.380;2023-07-22T07:52:48;6.93;;;3.45;;
40849;SDS011;26571;41.610;25.380;2023-07-22T07:55:14;3.17;;;2.40;;
40849;SDS011;26571;41.610;25.380;2023-07-22T07:57:40;5.35;;;3.20;;
40849;SDS011;26571;41.610;25.380;2023-07-22T08:00:05;7.70;;;2.38;;
40849;SDS011;26571;41.610;25.380;2023-07-22T08:02:34;4.13;;;2.47;;
40849;SDS011;26571;41.610;25.380;2023-07-22T08:05:00;8.05;;;3.53;;
40849;SDS011;26571;41.610;25.380;2023-07-22T08:07:25;2.93;;;2.40;;
40849;SDS011;26571;41.610;25.380;2023-07-22T08:09:51;3.67;;;2.30;;
40849;SDS011;26571;41.610;25.380;2023-07-22T08:12:17;7.25;;;4.15;;
40849;SDS011;26571;41.610;25.380;2023-07-22T08:14:43;7.13;;;3.30;;
40849;SDS011;26571;41.610;25.380;2023-07-22T08:17:09;5.63;;;3.00;;
40849;SDS011;26571;41.610;25.380;2023-07-22T08:19:35;5.35;;;2.42;;
40849;SDS011;26571;41.610;25.380;2023-07-22T08:22:00;6.23;;;3.33;;
40849;SDS011;26571;41.610;25.380;2023-07-22T08:24:25;5.87;;;2.27;;
40849;SDS011;26571;41.610;25.380;2023-07-22T08:26:51;10.90;;;3.27;;
40849;SDS011;26571;41.610;25.380;2023-07-22T08:29:16;4.43;;;2.50;;
40849;SDS011;26571;41.610;25.380;2023-07-22T08:31:42;2.53;;;2.35;;
40849;SDS011;26571;41.610;25.380;2023-07-22T08:34:07;5.65;;;2.50;;
40849;SDS011;26571;41.610;25.380;2023-07-22T08:36:32;4.87;;;2.73;;
40849;SDS011;26571;41.610;25.380;2023-07-22T08:38:58;4.88;;;2.50;;
40849;SDS011;26571;41.610;25.380;2023-07-22T08:41:24;6.80;;;2.77;;
40849;SDS011;26571;41.610;25.380;2023-07-22T08:43:50;4.78;;;2.25;;
40849;SDS011;26571;41.610;25.380;2023-07-22T08:48:44;3.22;;;2.17;;
40849;SDS011;26571;41.610;25.380;2023-07-22T08:51:15;5.13;;;2.63;;
40849;SDS011;26571;41.610;25.380;2023-07-22T08:53:43;5.68;;;2.78;;
40849;SDS011;26571;41.610;25.380;2023-07-22T08:56:12;5.03;;;2.08;;
40849;SDS011;26571;41.610;25.380;2023-07-22T08:58:38;7.05;;;1.65;;
40849;SDS011;26571;41.610;25.380;2023-07-22T09:01:04;6.80;;;1.92;;
40849;SDS011;26571;41.610;25.380;2023-07-22T09:05:55;4.30;;;2.20;;
40849;SDS011;26571;41.610;25.380;2023-07-22T09:08:21;3.65;;;1.75;;
40849;SDS011;26571;41.610;25.380;2023-07-22T09:10:47;4.57;;;2.13;;
40849;SDS011;26571;41.610;25.380;2023-07-22T09:13:13;1.73;;;1.58;;
40849;SDS011;26571;41.610;25.380;2023-07-22T09:15:39;4.47;;;2.47;;
40849;SDS011;26571;41.610;25.380;2023-07-22T09:18:05;3.55;;;1.95;;
40849;SDS011;26571;41.610;25.380;2023-07-22T09:20:30;2.83;;;1.88;;
40849;SDS011;26571;41.610;25.380;2023-07-22T09:22:56;4.70;;;3.47;;
40849;SDS011;26571;41.610;25.380;2023-07-22T09:25:24;5.90;;;2.40;;
40849;SDS011;26571;41.610;25.380;2023-07-22T09:27:54;7.20;;;3.80;;
40849;SDS011;26571;41.610;25.380;2023-07-22T09:32:52;5.97;;;1.83;;
40849;SDS011;26571;41.610;25.380;2023-07-22T09:35:20;4.22;;;1.45;;
40849;SDS011;26571;41.610;25.380;2023-07-22T09:37:46;5.03;;;2.00;;
40849;SDS011;26571;41.610;25.380;2023-07-22T09:42:47;4.35;;;1.70;;
40849;SDS011;26571;41.610;25.380;2023-07-22T09:45:17;5.90;;;1.80;;
40849;SDS011;26571;41.610;25.380;2023-07-22T09:47:47;4.88;;;3.55;;
40849;SDS011;26571;41.610;25.380;2023-07-22T09:50:17;6.78;;;2.13;;
40849;SDS011;26571;41.610;25.380;2023-07-22T09:52:47;3.60;;;2.33;;
40849;SDS011;26571;41.610;25.380;2023-07-22T09:55:15;5.88;;;2.08;;
40849;SDS011;26571;41.610;25.380;2023-07-22T09:57:43;6.50;;;2.45;;
40849;SDS011;26571;41.610;25.380;2023-07-22T10:00:14;5.30;;;2.47;;
40849;SDS011;26571;41.610;25.380;2023-07-22T10:02:42;3.90;;;1.55;;
40849;SDS011;26571;41.610;25.380;2023-07-22T10:05:12;6.40;;;1.98;;
40849;SDS011;26571;41.610;25.380;2023-07-22T10:07:44;2.97;;;1.73;;
40849;SDS011;26571;41.610;25.380;2023-07-22T10:10:11;3.40;;;1.88;;
40849;SDS011;26571;41.610;25.380;2023-07-22T10:12:41;8.27;;;2.08;;
40849;SDS011;26571;41.610;25.380;2023-07-22T10:15:09;4.45;;;1.95;;
40849;SDS011;26571;41.610;25.380;2023-07-22T10:17:35;5.25;;;2.08;;
40849;SDS011;26571;41.610;25.380;2023-07-22T10:22:30;7.60;;;2.60;;
40849;SDS011;26571;41.610;25.380;2023-07-22T10:27:22;5.65;;;2.00;;
40849;SDS011;26571;41.610;25.380;2023-07-22T10:29:48;3.78;;;1.52;;
40849;SDS011;26571;41.610;25.380;2023-07-22T10:34:39;4.78;;;2.92;;
40849;SDS011;26571;41.610;25.380;2023-07-22T10:37:04;5.85;;;1.88;;
40849;SDS011;26571;41.610;25.380;2023-07-22T10:39:30;2.90;;;1.50;;
40849;SDS011;26571;41.610;25.380;2023-07-22T10:42:04;2.85;;;1.23;;
40849;SDS011;26571;41.610;25.380;2023-07-22T10:44:31;6.47;;;2.40;;
40849;SDS011;26571;41.610;25.380;2023-07-22T10:47:05;5.07;;;2.05;;
40849;SDS011;26571;41.610;25.380;2023-07-22T10:49:43;6.85;;;2.80;;
40849;SDS011;26571;41.610;25.380;2023-07-22T10:52:12;7.80;;;2.55;;
40849;SDS011;26571;41.610;25.380;2023-07-22T10:54:39;8.55;;;2.25;;
40849;SDS011;26571;41.610;25.380;2023-07-22T10:59:40;12.38;;;3.28;;
40849;SDS011;26571;41.610;25.380;2023-07-22T11:02:22;7.93;;;1.92;;
40849;SDS011;26571;41.610;25.380;2023-07-22T11:04:49;4.97;;;2.13;;
40849;SDS011;26571;41.610;25.380;2023-07-22T11:09:40;4.78;;;2.05;;
40849;SDS011;26571;41.610;25.380;2023-07-22T11:12:17;8.15;;;1.88;;
40849;SDS011;26571;41.610;25.380;2023-07-22T11:14:50;3.78;;;1.42;;
40849;SDS011;26571;41.610;25.380;2023-07-22T11:17:18;5.88;;;2.22;;
40849;SDS011;26571;41.610;25.380;2023-07-22T11:19:54;5.53;;;2.03;;
40849;SDS011;26571;41.610;25.380;2023-07-22T11:24:46;7.50;;;2.35;;
40849;SDS011;26571;41.610;25.380;2023-07-22T11:27:11;4.68;;;1.52;;
40849;SDS011;26571;41.610;25.380;2023-07-22T11:32:02;8.25;;;2.85;;
40849;SDS011;26571;41.610;25.380;2023-07-22T11:34:29;4.10;;;1.98;;
40849;SDS011;26571;41.610;25.380;2023-07-22T11:36:55;4.53;;;2.05;;
40849;SDS011;26571;41.610;25.380;2023-07-22T11:39:21;7.18;;;2.13;;
40849;SDS011;26571;41.610;25.380;2023-07-22T11:41:49;6.45;;;1.40;;
40849;SDS011;26571;41.610;25.380;2023-07-22T11:44:16;7.25;;;1.80;;
40849;SDS011;26571;41.610;25.380;2023-07-22T11:46:52;9.32;;;2.45;;
40849;SDS011;26571;41.610;25.380;2023-07-22T11:51:49;6.78;;;2.55;;
40849;SDS011;26571;41.610;25.380;2023-07-22T11:56:42;7.90;;;3.20;;
40849;SDS011;26571;41.610;25.380;2023-07-22T11:59:07;4.63;;;1.90;;
40849;SDS011;26571;41.610;25.380;2023-07-22T12:01:33;6.47;;;3.70;;
40849;SDS011;26571;41.610;25.380;2023-07-22T12:06:25;7.57;;;3.05;;
40849;SDS011;26571;41.610;25.380;2023-07-22T12:08:51;4.00;;;2.38;;
40849;SDS011;26571;41.610;25.380;2023-07-22T12:13:43;6.80;;;1.70;;
40849;SDS011;26571;41.610;25.380;2023-07-22T12:16:11;8.43;;;1.50;;
40849;SDS011;26571;41.610;25.380;2023-07-22T12:18:46;7.55;;;2.05;;
40849;SDS011;26571;41.610;25.380;2023-07-22T12:21:15;6.38;;;1.80;;
40849;SDS011;26571;41.610;25.380;2023-07-22T12:23:41;6.55;;;1.85;;
40849;SDS011;26571;41.610;25.380;2023-07-22T12:26:08;7.85;;;2.17;;
40849;SDS011;26571;41.610;25.380;2023-07-22T12:28:33;7.00;;;1.48;;
40849;SDS011;26571;41.610;25.380;2023-07-22T12:30:59;6.05;;;2.28;;
40849;SDS011;26571;41.610;25.380;2023-07-22T12:33:25;6.07;;;1.40;;
40849;SDS011;26571;41.610;25.380;2023-07-22T12:35:50;8.18;;;1.35;;
40849;SDS011;26571;41.610;25.380;2023-07-22T12:38:18;11.95;;;3.47;;
40849;SDS011;26571;41.610;25.380;2023-07-22T12:40:43;7.93;;;2.67;;
40849;SDS011;26571;41.610;25.380;2023-07-22T12:43:09;9.07;;;1.98;;
40849;SDS011;26571;41.610;25.380;2023-07-22T12:45:34;6.88;;;1.80;;
40849;SDS011;26571;41.610;25.380;2023-07-22T12:47:59;8.75;;;1.83;;
40849;SDS011;26571;41.610;25.380;2023-07-22T12:50:25;6.75;;;1.98;;
40849;SDS011;26571;41.610;25.380;2023-07-22T12:52:50;5.65;;;1.50;;
40849;SDS011;26571;41.610;25.380;2023-07-22T12:55:16;5.75;;;1.98;;
40849;SDS011;26571;41.610;25.380;2023-07-22T12:57:41;6.60;;;2.67;;
40849;SDS011;26571;41.610;25.380;2023-07-22T13:00:07;11.67;;;2.03;;
40849;SDS011;26571;41.610;25.380;2023-07-22T13:02:34;4.57;;;1.60;;
40849;SDS011;26571;41.610;25.380;2023-07-22T13:05:00;7.32;;;1.40;;
40849;SDS011;26571;41.610;25.380;2023-07-22T13:07:25;8.45;;;2.17;;
40849;SDS011;26571;41.610;25.380;2023-07-22T13:09:51;15.25;;;3.47;;
40849;SDS011;26571;41.610;25.380;2023-07-22T13:12:21;10.85;;;3.60;;
40849;SDS011;26571;41.610;25.380;2023-07-22T13:14:47;9.73;;;2.20;;
40849;SDS011;26571;41.610;25.380;2023-07-22T13:17:12;9.13;;;2.28;;
40849;SDS011;26571;41.610;25.380;2023-07-22T13:19:38;8.45;;;2.60;;
40849;SDS011;26571;41.610;25.380;2023-07-22T13:22:03;9.60;;;1.90;;
40849;SDS011;26571;41.610;25.380;2023-07-22T13:24:29;4.60;;;2.50;;
40849;SDS011;26571;41.610;25.380;2023-07-22T13:26:55;6.35;;;2.58;;
40849;SDS011;26571;41.610;25.380;2023-07-22T13:29:20;6.10;;;2.65;;
40849;SDS011;26571;41.610;25.380;2023-07-22T13:31:45;15.10;;;2.78;;
40849;SDS011;26571;41.610;25.380;2023-07-22T13:34:11;5.88;;;1.98;;
40849;SDS011;26571;41.610;25.380;2023-07-22T13:36:36;14.38;;;2.88;;
40849;SDS011;26571;41.610;25.380;2023-07-22T13:39:02;10.73;;;2.77;;
40849;SDS011;26571;41.610;25.380;2023-07-22T13:41:27;13.27;;;4.50;;
40849;SDS011;26571;41.610;25.380;2023-07-22T13:43:53;9.90;;;3.78;;
40849;SDS011;26571;41.610;25.380;2023-07-22T13:46:19;7.40;;;2.78;;
40849;SDS011;26571;41.610;25.380;2023-07-22T13:48:44;9.40;;;3.40;;
40849;SDS011;26571;41.610;25.380;2023-07-22T13:51:10;9.20;;;3.57;;
40849;SDS011;26571;41.610;25.380;2023-07-22T13:53:35;12.63;;;4.07;;
40849;SDS011;26571;41.610;25.380;2023-07-22T13:56:01;7.60;;;2.67;;
40849;SDS011;26571;41.610;25.380;2023-07-22T13:58:26;12.20;;;4.67;;
40849;SDS011;26571;41.610;25.380;2023-07-22T14:00:52;11.85;;;2.63;;
40849;SDS011;26571;41.610;25.380;2023-07-22T14:03:17;8.10;;;3.33;;
40849;SDS011;26571;41.610;25.380;2023-07-22T14:05:43;7.47;;;3.40;;
40849;SDS011;26571;41.610;25.380;2023-07-22T14:08:08;7.53;;;3.57;;
40849;SDS011;26571;41.610;25.380;2023-07-22T14:10:34;12.83;;;3.80;;
40849;SDS011;26571;41.610;25.380;2023-07-22T14:12:59;9.37;;;3.60;;
40849;SDS011;26571;41.610;25.380;2023-07-22T14:15:25;13.67;;;3.97;;
40849;SDS011;26571;41.610;25.380;2023-07-22T14:17:50;12.47;;;3.00;;
40849;SDS011;26571;41.610;25.380;2023-07-22T14:20:15;7.43;;;2.60;;
40849;SDS011;26571;41.610;25.380;2023-07-22T14:22:41;7.57;;;4.73;;
40849;SDS011;26571;41.610;25.380;2023-07-22T14:25:07;5.10;;;3.75;;
40849;SDS011;26571;41.610;25.380;2023-07-22T14:27:33;9.63;;;3.15;;
40849;SDS011;26571;41.610;25.380;2023-07-22T14:30:00;10.30;;;3.15;;
40849;SDS011;26571;41.610;25.380;2023-07-22T14:32:25;8.00;;;3.28;;
40849;SDS011;26571;41.610;25.380;2023-07-22T14:34:51;7.23;;;3.20;;
40849;SDS011;26571;41.610;25.380;2023-07-22T14:37:16;16.13;;;4.37;;
40849;SDS011;26571;41.610;25.380;2023-07-22T14:39:42;12.55;;;4.25;;
40849;SDS011;26571;41.610;25.380;2023-07-22T14:42:07;10.27;;;4.03;;
40849;SDS011;26571;41.610;25.380;2023-07-22T14:44:33;8.20;;;4.40;;
40849;SDS011;26571;41.610;25.380;2023-07-22T14:46:58;12.37;;;4.27;;
40849;SDS011;26571;41.610;25.380;2023-07-22T14:49:24;8.93;;;4.47;;
40849;SDS011;26571;41.610;25.380;2023-07-22T14:51:49;10.03;;;3.53;;
40849;SDS011;26571;41.610;25.380;2023-07-22T14:54:15;6.70;;;3.60;;
40849;SDS011;26571;41.610;25.380;2023-07-22T14:56:40;13.33;;;4.67;;
40849;SDS011;26571;41.610;25.380;2023-07-22T14:59:05;6.40;;;3.57;;
40849;SDS011;26571;41.610;25.380;2023-07-22T15:01:38;8.00;;;3.72;;
40849;SDS011;26571;41.610;25.380;2023-07-22T15:04:04;18.05;;;3.70;;
40849;SDS011;26571;41.610;25.380;2023-07-22T15:06:30;4.38;;;2.90;;
40849;SDS011;26571;41.610;25.380;2023-07-22T15:08:56;7.60;;;2.57;;
40849;SDS011;26571;41.610;25.380;2023-07-22T15:11:22;10.30;;;2.97;;
40849;SDS011;26571;41.610;25.380;2023-07-22T15:16:16;6.15;;;2.63;;
40849;SDS011;26571;41.610;25.380;2023-07-22T15:18:41;10.03;;;2.60;;
40849;SDS011;26571;41.610;25.380;2023-07-22T15:21:07;11.73;;;3.97;;